sensor_id;sensor_type;location;lat;lon;timestamp;P1;durP1;ratioP1;P2;durP2;ratioP2
53875;SDS011;39789;53.216;5.624;2022-10-12T00:02:24;10.77;;;4.63;;
53875;SDS011;39789;53.216;5.624;2022-10-12T00:04:49;7.90;;;4.50;;
53875;SDS011;39789;53.216;5.624;2022-10-12T00:07:15;9.95;;;5.03;;
53875;SDS011;39789;53.216;5.624;2022-10-12T00:09:41;13.57;;;4.57;;
53875;SDS011;39789;53.216;5.624;2022-10-12T00:12:06;13.18;;;5.57;;
53875;SDS011;39789;53.216;5.624;2022-10-12T00:14:34;13.13;;;5.03;;
53875;SDS011;39789;53.216;5.624;2022-10-12T00:17:00;10.13;;;5.25;;
53875;SDS011;39789;53.216;5.624;2022-10-12T00:19:26;8.60;;;4.60;;
53875;SDS011;39789;53.216;5.624;2022-10-12T00:21:52;9.38;;;4.80;;
53875;SDS011;39789;53.216;5.624;2022-10-12T00:24:17;7.05;;;4.55;;
53875;SDS011;39789;53.216;5.624;2022-10-12T00:26:43;11.43;;;4.88;;
53875;SDS011;39789;53.216;5.624;2022-10-12T00:29:08;7.13;;;4.40;;
53875;SDS011;39789;53.216;5.624;2022-10-12T00:31:34;9.73;;;4.50;;
53875;SDS011;39789;53.216;5.624;2022-10-12T00:34:00;10.05;;;5.43;;
53875;SDS011;39789;53.216;5.624;2022-10-12T00:36:27;9.57;;;5.32;;
53875;SDS011;39789;53.216;5.624;2022-10-12T00:38:56;11.68;;;5.72;;
53875;SDS011;39789;53.216;5.624;2022-10-12T00:41:23;10.68;;;6.03;;
53875;SDS011;39789;53.216;5.624;2022-10-12T00:43:51;12.25;;;4.78;;
53875;SDS011;39789;53.216;5.624;2022-10-12T00:46:18;12.55;;;4.57;;
53875;SDS011;39789;53.216;5.624;2022-10-12T00:48:51;10.35;;;4.65;;
53875;SDS011;39789;53.216;5.624;2022-10-12T00:51:22;10.20;;;5.03;;
53875;SDS011;39789;53.216;5.624;2022-10-12T00:53:50;10.55;;;4.93;;
53875;SDS011;39789;53.216;5.624;2022-10-12T00:56:20;16.30;;;5.47;;
53875;SDS011;39789;53.216;5.624;2022-10-12T00:58:48;8.85;;;5.25;;
53875;SDS011;39789;53.216;5.624;2022-10-12T01:01:15;13.02;;;6.20;;
53875;SDS011;39789;53.216;5.624;2022-10-12T01:03:41;10.90;;;5.28;;
53875;SDS011;39789;53.216;5.624;2022-10-12T01:06:08;12.23;;;5.70;;
53875;SDS011;39789;53.216;5.624;2022-10-12T01:08:33;9.05;;;6.03;;
53875;SDS011;39789;53.216;5.624;2022-10-12T01:11:00;8.85;;;5.60;;
53875;SDS011;39789;53.216;5.624;2022-10-12T01:13:26;16.10;;;6.00;;
53875;SDS011;39789;53.216;5.624;2022-10-12T01:16:01;12.98;;;6.35;;
53875;SDS011;39789;53.216;5.624;2022-10-12T01:18:38;15.48;;;6.15;;
53875;SDS011;39789;53.216;5.624;2022-10-12T01:24:00;9.65;;;5.97;;
53875;SDS011;39789;53.216;5.624;2022-10-12T01:34:52;11.90;;;5.60;;
53875;SDS011;39789;53.216;5.624;2022-10-12T01:37:42;10.25;;;5.45;;
53875;SDS011;39789;53.216;5.624;2022-10-12T01:40:14;10.52;;;5.07;;
53875;SDS011;39789;53.216;5.624;2022-10-12T01:42:43;13.52;;;5.65;;
53875;SDS011;39789;53.216;5.624;2022-10-12T01:45:15;10.48;;;5.32;;
53875;SDS011;39789;53.216;5.624;2022-10-12T01:47:43;9.60;;;5.55;;
53875;SDS011;39789;53.216;5.624;2022-10-12T01:50:16;14.27;;;5.32;;
53875;SDS011;39789;53.216;5.624;2022-10-12T02:06:55;8.48;;;5.15;;
53875;SDS011;39789;53.216;5.624;2022-10-12T02:09:32;10.13;;;5.90;;
53875;SDS011;39789;53.216;5.624;2022-10-12T02:12:03;10.32;;;5.10;;
53875;SDS011;39789;53.216;5.624;2022-10-12T02:14:39;11.02;;;4.90;;
53875;SDS011;39789;53.216;5.624;2022-10-12T02:17:12;11.18;;;5.53;;
53875;SDS011;39789;53.216;5.624;2022-10-12T02:19:41;12.50;;;5.45;;
53875;SDS011;39789;53.216;5.624;2022-10-12T02:22:11;10.55;;;5.63;;
53875;SDS011;39789;53.216;5.624;2022-10-12T02:24:39;10.45;;;5.07;;
53875;SDS011;39789;53.216;5.624;2022-10-12T02:27:07;13.43;;;5.50;;
53875;SDS011;39789;53.216;5.624;2022-10-12T02:29:36;8.48;;;4.50;;
53875;SDS011;39789;53.216;5.624;2022-10-12T02:32:13;8.88;;;4.90;;
53875;SDS011;39789;53.216;5.624;2022-10-12T02:40:50;10.55;;;4.45;;
53875;SDS011;39789;53.216;5.624;2022-10-12T02:43:22;8.65;;;4.97;;
53875;SDS011;39789;53.216;5.624;2022-10-12T02:45:56;7.18;;;4.80;;
53875;SDS011;39789;53.216;5.624;2022-10-12T02:48:23;7.65;;;4.40;;
53875;SDS011;39789;53.216;5.624;2022-10-12T02:50:51;12.38;;;4.20;;
53875;SDS011;39789;53.216;5.624;2022-10-12T02:53:20;9.82;;;4.63;;
53875;SDS011;39789;53.216;5.624;2022-10-12T02:55:51;16.88;;;5.53;;
53875;SDS011;39789;53.216;5.624;2022-10-12T02:58:18;9.50;;;4.30;;
53875;SDS011;39789;53.216;5.624;2022-10-12T03:00:44;9.90;;;4.20;;
53875;SDS011;39789;53.216;5.624;2022-10-12T03:03:10;6.55;;;4.43;;
53875;SDS011;39789;53.216;5.624;2022-10-12T03:05:36;12.02;;;4.50;;
53875;SDS011;39789;53.216;5.624;2022-10-12T03:08:02;7.22;;;4.07;;
53875;SDS011;39789;53.216;5.624;2022-10-12T03:10:28;10.43;;;4.00;;
53875;SDS011;39789;53.216;5.624;2022-10-12T03:12:53;7.90;;;3.85;;
53875;SDS011;39789;53.216;5.624;2022-10-12T03:15:19;6.75;;;3.95;;
53875;SDS011;39789;53.216;5.624;2022-10-12T03:17:45;7.47;;;3.92;;
53875;SDS011;39789;53.216;5.624;2022-10-12T03:20:11;8.40;;;4.22;;
53875;SDS011;39789;53.216;5.624;2022-10-12T03:22:36;8.00;;;4.00;;
53875;SDS011;39789;53.216;5.624;2022-10-12T03:25:02;9.65;;;4.38;;
53875;SDS011;39789;53.216;5.624;2022-10-12T03:27:28;6.65;;;4.32;;
53875;SDS011;39789;53.216;5.624;2022-10-12T03:29:53;5.68;;;3.42;;
53875;SDS011;39789;53.216;5.624;2022-10-12T03:32:19;11.30;;;3.97;;
53875;SDS011;39789;53.216;5.624;2022-10-12T03:34:45;9.35;;;4.68;;
53875;SDS011;39789;53.216;5.624;2022-10-12T03:37:10;12.25;;;4.60;;
53875;SDS011;39789;53.216;5.624;2022-10-12T03:39:36;10.45;;;3.70;;
53875;SDS011;39789;53.216;5.624;2022-10-12T03:42:02;7.07;;;4.03;;
53875;SDS011;39789;53.216;5.624;2022-10-12T03:44:28;6.80;;;3.97;;
53875;SDS011;39789;53.216;5.624;2022-10-12T03:46:53;10.50;;;5.10;;
53875;SDS011;39789;53.216;5.624;2022-10-12T03:49:19;10.60;;;4.20;;
53875;SDS011;39789;53.216;5.624;2022-10-12T03:51:44;8.38;;;4.35;;
53875;SDS011;39789;53.216;5.624;2022-10-12T03:54:10;8.60;;;4.30;;
53875;SDS011;39789;53.216;5.624;2022-10-12T03:56:35;9.68;;;4.05;;
53875;SDS011;39789;53.216;5.624;2022-10-12T03:59:01;8.95;;;4.30;;
53875;SDS011;39789;53.216;5.624;2022-10-12T04:01:26;9.18;;;4.75;;
53875;SDS011;39789;53.216;5.624;2022-10-12T04:03:52;10.13;;;4.05;;
53875;SDS011;39789;53.216;5.624;2022-10-12T04:06:17;8.38;;;3.92;;
53875;SDS011;39789;53.216;5.624;2022-10-12T04:08:43;7.35;;;3.92;;
53875;SDS011;39789;53.216;5.624;2022-10-12T04:11:09;9.48;;;4.13;;
53875;SDS011;39789;53.216;5.624;2022-10-12T04:13:35;7.10;;;3.92;;
53875;SDS011;39789;53.216;5.624;2022-10-12T04:16:01;6.07;;;3.90;;
53875;SDS011;39789;53.216;5.624;2022-10-12T04:18:28;13.73;;;4.80;;
53875;SDS011;39789;53.216;5.624;2022-10-12T04:20:53;10.13;;;4.30;;
53875;SDS011;39789;53.216;5.624;2022-10-12T04:23:19;7.78;;;3.70;;
53875;SDS011;39789;53.216;5.624;2022-10-12T04:25:45;7.93;;;4.45;;
53875;SDS011;39789;53.216;5.624;2022-10-12T04:28:10;9.45;;;4.53;;
53875;SDS011;39789;53.216;5.624;2022-10-12T04:30:36;9.85;;;4.47;;
53875;SDS011;39789;53.216;5.624;2022-10-12T04:33:02;6.97;;;4.93;;
53875;SDS011;39789;53.216;5.624;2022-10-12T04:35:28;8.70;;;4.90;;
53875;SDS011;39789;53.216;5.624;2022-10-12T04:37:54;7.00;;;4.65;;
53875;SDS011;39789;53.216;5.624;2022-10-12T04:40:20;7.80;;;4.35;;
53875;SDS011;39789;53.216;5.624;2022-10-12T04:42:46;11.25;;;5.07;;
53875;SDS011;39789;53.216;5.624;2022-10-12T04:45:11;9.15;;;5.38;;
53875;SDS011;39789;53.216;5.624;2022-10-12T04:47:37;10.30;;;5.60;;
53875;SDS011;39789;53.216;5.624;2022-10-12T04:50:03;10.07;;;5.75;;
53875;SDS011;39789;53.216;5.624;2022-10-12T04:52:29;11.65;;;5.82;;
53875;SDS011;39789;53.216;5.624;2022-10-12T04:54:54;11.48;;;5.60;;
53875;SDS011;39789;53.216;5.624;2022-10-12T04:57:20;10.18;;;6.25;;
53875;SDS011;39789;53.216;5.624;2022-10-12T04:59:45;11.20;;;6.40;;
53875;SDS011;39789;53.216;5.624;2022-10-12T05:02:11;13.23;;;6.10;;
53875;SDS011;39789;53.216;5.624;2022-10-12T05:04:36;9.82;;;6.10;;
53875;SDS011;39789;53.216;5.624;2022-10-12T05:07:02;12.43;;;7.28;;
53875;SDS011;39789;53.216;5.624;2022-10-12T05:09:28;10.15;;;6.65;;
53875;SDS011;39789;53.216;5.624;2022-10-12T05:11:53;13.05;;;7.13;;
53875;SDS011;39789;53.216;5.624;2022-10-12T05:14:19;14.60;;;7.72;;
53875;SDS011;39789;53.216;5.624;2022-10-12T05:16:44;9.35;;;7.10;;
53875;SDS011;39789;53.216;5.624;2022-10-12T05:19:10;17.13;;;7.18;;
53875;SDS011;39789;53.216;5.624;2022-10-12T05:21:35;14.57;;;6.95;;
53875;SDS011;39789;53.216;5.624;2022-10-12T05:24:01;11.15;;;6.88;;
53875;SDS011;39789;53.216;5.624;2022-10-12T05:26:27;10.68;;;6.50;;
53875;SDS011;39789;53.216;5.624;2022-10-12T05:28:52;11.40;;;6.05;;
53875;SDS011;39789;53.216;5.624;2022-10-12T05:31:18;10.10;;;6.15;;
53875;SDS011;39789;53.216;5.624;2022-10-12T05:33:43;7.70;;;6.22;;
53875;SDS011;39789;53.216;5.624;2022-10-12T05:36:09;10.35;;;6.18;;
53875;SDS011;39789;53.216;5.624;2022-10-12T05:38:34;12.40;;;6.80;;
53875;SDS011;39789;53.216;5.624;2022-10-12T05:41:00;9.60;;;6.18;;
53875;SDS011;39789;53.216;5.624;2022-10-12T05:43:26;12.32;;;6.57;;
53875;SDS011;39789;53.216;5.624;2022-10-12T05:45:52;9.52;;;6.30;;
53875;SDS011;39789;53.216;5.624;2022-10-12T05:48:17;13.68;;;7.38;;
53875;SDS011;39789;53.216;5.624;2022-10-12T05:50:43;12.10;;;8.07;;
53875;SDS011;39789;53.216;5.624;2022-10-12T05:53:08;9.82;;;6.13;;
53875;SDS011;39789;53.216;5.624;2022-10-12T05:55:34;6.95;;;5.80;;
53875;SDS011;39789;53.216;5.624;2022-10-12T05:57:59;12.60;;;6.45;;
53875;SDS011;39789;53.216;5.624;2022-10-12T06:00:25;9.05;;;5.97;;
53875;SDS011;39789;53.216;5.624;2022-10-12T06:02:50;10.05;;;5.97;;
53875;SDS011;39789;53.216;5.624;2022-10-12T06:05:16;12.00;;;6.93;;
53875;SDS011;39789;53.216;5.624;2022-10-12T06:07:42;12.73;;;6.15;;
53875;SDS011;39789;53.216;5.624;2022-10-12T06:10:07;9.00;;;5.65;;
53875;SDS011;39789;53.216;5.624;2022-10-12T06:12:33;8.50;;;5.90;;
53875;SDS011;39789;53.216;5.624;2022-10-12T06:14:59;10.77;;;5.97;;
53875;SDS011;39789;53.216;5.624;2022-10-12T06:17:24;8.57;;;6.18;;
53875;SDS011;39789;53.216;5.624;2022-10-12T06:19:50;11.85;;;7.22;;
53875;SDS011;39789;53.216;5.624;2022-10-12T06:22:15;14.35;;;6.38;;
53875;SDS011;39789;53.216;5.624;2022-10-12T06:24:41;17.02;;;7.22;;
53875;SDS011;39789;53.216;5.624;2022-10-12T06:27:07;13.65;;;7.40;;
53875;SDS011;39789;53.216;5.624;2022-10-12T06:29:32;11.73;;;6.72;;
53875;SDS011;39789;53.216;5.624;2022-10-12T06:31:59;14.25;;;7.13;;
53875;SDS011;39789;53.216;5.624;2022-10-12T06:34:25;12.07;;;7.10;;
53875;SDS011;39789;53.216;5.624;2022-10-12T06:36:50;12.18;;;6.68;;
53875;SDS011;39789;53.216;5.624;2022-10-12T06:39:16;15.05;;;7.68;;
53875;SDS011;39789;53.216;5.624;2022-10-12T06:41:42;9.90;;;7.15;;
53875;SDS011;39789;53.216;5.624;2022-10-12T06:44:08;12.15;;;7.10;;
53875;SDS011;39789;53.216;5.624;2022-10-12T06:46:33;18.73;;;9.93;;
53875;SDS011;39789;53.216;5.624;2022-10-12T06:48:59;11.95;;;7.55;;
53875;SDS011;39789;53.216;5.624;2022-10-12T06:51:25;15.50;;;7.88;;
53875;SDS011;39789;53.216;5.624;2022-10-12T06:53:53;11.48;;;7.50;;
53875;SDS011;39789;53.216;5.624;2022-10-12T06:56:19;14.63;;;8.13;;
53875;SDS011;39789;53.216;5.624;2022-10-12T06:58:45;13.85;;;7.80;;
53875;SDS011;39789;53.216;5.624;2022-10-12T07:01:10;12.25;;;7.20;;
53875;SDS011;39789;53.216;5.624;2022-10-12T07:03:36;16.80;;;7.57;;
53875;SDS011;39789;53.216;5.624;2022-10-12T07:06:08;14.23;;;8.40;;
53875;SDS011;39789;53.216;5.624;2022-10-12T07:08:38;20.13;;;8.90;;
53875;SDS011;39789;53.216;5.624;2022-10-12T07:11:23;13.80;;;7.90;;
53875;SDS011;39789;53.216;5.624;2022-10-12T07:13:49;12.52;;;8.02;;
53875;SDS011;39789;53.216;5.624;2022-10-12T07:16:14;15.73;;;9.00;;
53875;SDS011;39789;53.216;5.624;2022-10-12T07:18:40;19.48;;;9.27;;
53875;SDS011;39789;53.216;5.624;2022-10-12T07:21:06;17.10;;;9.02;;
53875;SDS011;39789;53.216;5.624;2022-10-12T07:23:32;18.67;;;8.77;;
53875;SDS011;39789;53.216;5.624;2022-10-12T07:25:58;14.02;;;8.60;;
53875;SDS011;39789;53.216;5.624;2022-10-12T07:28:24;14.18;;;9.38;;
53875;SDS011;39789;53.216;5.624;2022-10-12T07:30:50;10.65;;;7.97;;
53875;SDS011;39789;53.216;5.624;2022-10-12T07:33:15;17.75;;;8.52;;
53875;SDS011;39789;53.216;5.624;2022-10-12T07:35:41;17.50;;;9.13;;
53875;SDS011;39789;53.216;5.624;2022-10-12T07:38:07;16.75;;;8.60;;
53875;SDS011;39789;53.216;5.624;2022-10-12T07:40:32;16.58;;;8.95;;
53875;SDS011;39789;53.216;5.624;2022-10-12T07:42:58;11.68;;;8.15;;
53875;SDS011;39789;53.216;5.624;2022-10-12T07:48:11;16.08;;;8.77;;
53875;SDS011;39789;53.216;5.624;2022-10-12T07:50:37;16.98;;;8.32;;
53875;SDS011;39789;53.216;5.624;2022-10-12T07:53:02;13.30;;;9.13;;
53875;SDS011;39789;53.216;5.624;2022-10-12T07:55:29;13.82;;;9.05;;
53875;SDS011;39789;53.216;5.624;2022-10-12T07:57:56;17.63;;;9.95;;
53875;SDS011;39789;53.216;5.624;2022-10-12T08:00:23;15.70;;;9.10;;
53875;SDS011;39789;53.216;5.624;2022-10-12T08:02:49;17.48;;;9.93;;
53875;SDS011;39789;53.216;5.624;2022-10-12T08:05:15;18.33;;;8.88;;
53875;SDS011;39789;53.216;5.624;2022-10-12T08:07:45;12.23;;;8.05;;
53875;SDS011;39789;53.216;5.624;2022-10-12T08:10:15;16.60;;;8.68;;
53875;SDS011;39789;53.216;5.624;2022-10-12T08:12:41;15.60;;;8.00;;
53875;SDS011;39789;53.216;5.624;2022-10-12T08:15:09;16.27;;;8.82;;
53875;SDS011;39789;53.216;5.624;2022-10-12T08:17:34;13.98;;;7.82;;
53875;SDS011;39789;53.216;5.624;2022-10-12T08:20:00;13.93;;;9.25;;
53875;SDS011;39789;53.216;5.624;2022-10-12T08:22:26;12.77;;;8.43;;
53875;SDS011;39789;53.216;5.624;2022-10-12T08:24:51;15.60;;;9.13;;
53875;SDS011;39789;53.216;5.624;2022-10-12T08:27:17;13.27;;;7.80;;
53875;SDS011;39789;53.216;5.624;2022-10-12T08:29:42;16.60;;;8.07;;
53875;SDS011;39789;53.216;5.624;2022-10-12T08:32:08;13.95;;;8.25;;
53875;SDS011;39789;53.216;5.624;2022-10-12T08:34:33;19.27;;;7.85;;
53875;SDS011;39789;53.216;5.624;2022-10-12T08:36:59;13.63;;;7.75;;
53875;SDS011;39789;53.216;5.624;2022-10-12T08:39:25;15.68;;;7.95;;
53875;SDS011;39789;53.216;5.624;2022-10-12T08:49:44;18.45;;;8.00;;
53875;SDS011;39789;53.216;5.624;2022-10-12T08:52:16;13.93;;;7.75;;
53875;SDS011;39789;53.216;5.624;2022-10-12T08:54:49;18.38;;;7.95;;
53875;SDS011;39789;53.216;5.624;2022-10-12T08:57:20;15.85;;;7.63;;
53875;SDS011;39789;53.216;5.624;2022-10-12T08:59:46;17.90;;;7.97;;
53875;SDS011;39789;53.216;5.624;2022-10-12T09:05:03;18.23;;;8.43;;
53875;SDS011;39789;53.216;5.624;2022-10-12T09:07:39;12.93;;;7.20;;
53875;SDS011;39789;53.216;5.624;2022-10-12T09:12:59;16.25;;;6.78;;
53875;SDS011;39789;53.216;5.624;2022-10-12T09:16:01;11.23;;;6.57;;
53875;SDS011;39789;53.216;5.624;2022-10-12T09:18:37;13.68;;;6.35;;
53875;SDS011;39789;53.216;5.624;2022-10-12T09:21:05;14.80;;;6.35;;
53875;SDS011;39789;53.216;5.624;2022-10-12T09:23:39;14.00;;;5.55;;
53875;SDS011;39789;53.216;5.624;2022-10-12T09:26:19;11.98;;;4.88;;
53875;SDS011;39789;53.216;5.624;2022-10-12T09:29:14;10.85;;;5.20;;
53875;SDS011;39789;53.216;5.624;2022-10-12T09:34:57;10.00;;;4.63;;
53875;SDS011;39789;53.216;5.624;2022-10-12T09:37:24;13.57;;;4.72;;
53875;SDS011;39789;53.216;5.624;2022-10-12T09:39:54;12.07;;;4.65;;
53875;SDS011;39789;53.216;5.624;2022-10-12T09:42:21;11.18;;;3.85;;
53875;SDS011;39789;53.216;5.624;2022-10-12T09:44:47;13.02;;;3.83;;
53875;SDS011;39789;53.216;5.624;2022-10-12T09:49:52;10.82;;;4.15;;
53875;SDS011;39789;53.216;5.624;2022-10-12T09:52:23;8.25;;;4.18;;
53875;SDS011;39789;53.216;5.624;2022-10-12T09:55:04;11.35;;;4.18;;
53875;SDS011;39789;53.216;5.624;2022-10-12T09:57:43;12.27;;;3.72;;
53875;SDS011;39789;53.216;5.624;2022-10-12T10:00:31;10.57;;;3.58;;
53875;SDS011;39789;53.216;5.624;2022-10-12T10:03:00;11.20;;;3.83;;
53875;SDS011;39789;53.216;5.624;2022-10-12T10:08:41;11.85;;;4.15;;
53875;SDS011;39789;53.216;5.624;2022-10-12T10:11:15;8.38;;;3.70;;
53875;SDS011;39789;53.216;5.624;2022-10-12T10:13:47;13.25;;;4.43;;
53875;SDS011;39789;53.216;5.624;2022-10-12T10:16:16;10.50;;;3.85;;
53875;SDS011;39789;53.216;5.624;2022-10-12T10:21:13;14.40;;;3.30;;
53875;SDS011;39789;53.216;5.624;2022-10-12T10:23:54;9.48;;;3.08;;
53875;SDS011;39789;53.216;5.624;2022-10-12T10:26:22;13.50;;;3.40;;
53875;SDS011;39789;53.216;5.624;2022-10-12T10:28:56;8.23;;;3.13;;
53875;SDS011;39789;53.216;5.624;2022-10-12T10:31:42;8.07;;;3.50;;
53875;SDS011;39789;53.216;5.624;2022-10-12T10:34:29;10.52;;;3.67;;
53875;SDS011;39789;53.216;5.624;2022-10-12T10:37:19;9.65;;;2.83;;
53875;SDS011;39789;53.216;5.624;2022-10-12T10:40:05;9.90;;;3.42;;
53875;SDS011;39789;53.216;5.624;2022-10-12T10:43:01;10.75;;;3.33;;
53875;SDS011;39789;53.216;5.624;2022-10-12T10:45:49;9.10;;;3.10;;
53875;SDS011;39789;53.216;5.624;2022-10-12T10:48:23;12.65;;;3.28;;
53875;SDS011;39789;53.216;5.624;2022-10-12T10:50:57;12.73;;;2.78;;
53875;SDS011;39789;53.216;5.624;2022-10-12T10:53:27;13.35;;;3.38;;
53875;SDS011;39789;53.216;5.624;2022-10-12T10:56:10;11.05;;;3.08;;
53875;SDS011;39789;53.216;5.624;2022-10-12T10:58:50;9.73;;;2.72;;
53875;SDS011;39789;53.216;5.624;2022-10-12T11:01:45;9.25;;;2.83;;
53875;SDS011;39789;53.216;5.624;2022-10-12T11:04:19;13.65;;;2.88;;
53875;SDS011;39789;53.216;5.624;2022-10-12T11:06:55;8.73;;;2.80;;
53875;SDS011;39789;53.216;5.624;2022-10-12T11:09:32;11.05;;;2.95;;
53875;SDS011;39789;53.216;5.624;2022-10-12T11:12:06;10.75;;;4.07;;
53875;SDS011;39789;53.216;5.624;2022-10-12T11:14:42;10.05;;;3.05;;
53875;SDS011;39789;53.216;5.624;2022-10-12T11:17:11;13.85;;;3.20;;
53875;SDS011;39789;53.216;5.624;2022-10-12T11:20:31;12.45;;;3.83;;
53875;SDS011;39789;53.216;5.624;2022-10-12T11:22:49;16.55;;;3.95;;
53875;SDS011;39789;53.216;5.624;2022-10-12T11:25:27;13.68;;;3.15;;
53875;SDS011;39789;53.216;5.624;2022-10-12T11:28:06;10.82;;;4.10;;
53875;SDS011;39789;53.216;5.624;2022-10-12T11:34:20;10.75;;;3.15;;
53875;SDS011;39789;53.216;5.624;2022-10-12T11:36:49;10.27;;;2.53;;
53875;SDS011;39789;53.216;5.624;2022-10-12T11:39:29;12.98;;;3.15;;
53875;SDS011;39789;53.216;5.624;2022-10-12T11:42:03;9.07;;;2.40;;
53875;SDS011;39789;53.216;5.624;2022-10-12T11:44:42;9.20;;;2.97;;
53875;SDS011;39789;53.216;5.624;2022-10-12T11:50:02;10.75;;;3.47;;
53875;SDS011;39789;53.216;5.624;2022-10-12T11:52:45;9.10;;;2.30;;
53875;SDS011;39789;53.216;5.624;2022-10-12T11:55:24;12.13;;;3.05;;
53875;SDS011;39789;53.216;5.624;2022-10-12T11:57:57;9.75;;;2.58;;
53875;SDS011;39789;53.216;5.624;2022-10-12T12:00:37;7.72;;;2.00;;
53875;SDS011;39789;53.216;5.624;2022-10-12T12:08:58;11.15;;;2.50;;
53875;SDS011;39789;53.216;5.624;2022-10-12T12:11:41;8.65;;;2.65;;
53875;SDS011;39789;53.216;5.624;2022-10-12T12:16:47;13.15;;;2.70;;
53875;SDS011;39789;53.216;5.624;2022-10-12T12:24:54;7.95;;;2.83;;
53875;SDS011;39789;53.216;5.624;2022-10-12T12:32:53;8.88;;;2.60;;
53875;SDS011;39789;53.216;5.624;2022-10-12T12:37:49;8.15;;;2.67;;
53875;SDS011;39789;53.216;5.624;2022-10-12T12:40:29;11.23;;;2.97;;
53875;SDS011;39789;53.216;5.624;2022-10-12T12:51:07;5.53;;;2.50;;
53875;SDS011;39789;53.216;5.624;2022-10-12T12:53:44;10.07;;;3.50;;
53875;SDS011;39789;53.216;5.624;2022-10-12T12:56:23;9.38;;;3.03;;
53875;SDS011;39789;53.216;5.624;2022-10-12T13:04:59;10.48;;;3.13;;
53875;SDS011;39789;53.216;5.624;2022-10-12T13:10:20;11.45;;;3.45;;
53875;SDS011;39789;53.216;5.624;2022-10-12T13:21:16;13.82;;;3.00;;
53875;SDS011;39789;53.216;5.624;2022-10-12T13:23:46;7.93;;;3.30;;
53875;SDS011;39789;53.216;5.624;2022-10-12T13:26:17;6.85;;;2.72;;
53875;SDS011;39789;53.216;5.624;2022-10-12T13:28:53;11.30;;;3.53;;
53875;SDS011;39789;53.216;5.624;2022-10-12T13:33:58;11.13;;;3.22;;
53875;SDS011;39789;53.216;5.624;2022-10-12T13:39:19;10.38;;;3.05;;
53875;SDS011;39789;53.216;5.624;2022-10-12T13:42:00;11.52;;;3.20;;
53875;SDS011;39789;53.216;5.624;2022-10-12T13:44:27;13.32;;;3.00;;
53875;SDS011;39789;53.216;5.624;2022-10-12T13:46:58;10.50;;;2.80;;
53875;SDS011;39789;53.216;5.624;2022-10-12T13:49:29;11.80;;;3.33;;
53875;SDS011;39789;53.216;5.624;2022-10-12T13:51:57;9.73;;;2.80;;
53875;SDS011;39789;53.216;5.624;2022-10-12T13:54:41;10.35;;;2.85;;
53875;SDS011;39789;53.216;5.624;2022-10-12T13:57:28;16.90;;;3.88;;
53875;SDS011;39789;53.216;5.624;2022-10-12T14:00:18;10.13;;;3.40;;
53875;SDS011;39789;53.216;5.624;2022-10-12T14:02:55;8.05;;;2.75;;
53875;SDS011;39789;53.216;5.624;2022-10-12T14:05:27;8.52;;;3.10;;
53875;SDS011;39789;53.216;5.624;2022-10-12T14:08:13;8.98;;;3.35;;
53875;SDS011;39789;53.216;5.624;2022-10-12T14:10:41;10.95;;;3.08;;
53875;SDS011;39789;53.216;5.624;2022-10-12T14:13:12;11.25;;;3.45;;
53875;SDS011;39789;53.216;5.624;2022-10-12T14:15:39;7.70;;;3.30;;
53875;SDS011;39789;53.216;5.624;2022-10-12T14:21:09;9.15;;;2.90;;
53875;SDS011;39789;53.216;5.624;2022-10-12T14:23:48;15.73;;;4.22;;
53875;SDS011;39789;53.216;5.624;2022-10-12T14:28:57;8.63;;;3.42;;
53875;SDS011;39789;53.216;5.624;2022-10-12T14:31:45;12.52;;;4.13;;
53875;SDS011;39789;53.216;5.624;2022-10-12T14:34:23;10.90;;;3.80;;
53875;SDS011;39789;53.216;5.624;2022-10-12T14:36:59;12.65;;;3.95;;
53875;SDS011;39789;53.216;5.624;2022-10-12T14:39:26;12.48;;;4.53;;
53875;SDS011;39789;53.216;5.624;2022-10-12T14:41:51;14.10;;;4.10;;
53875;SDS011;39789;53.216;5.624;2022-10-12T14:44:19;12.43;;;3.88;;
53875;SDS011;39789;53.216;5.624;2022-10-12T14:49:20;14.20;;;4.45;;
53875;SDS011;39789;53.216;5.624;2022-10-12T14:51:47;9.57;;;3.65;;
53875;SDS011;39789;53.216;5.624;2022-10-12T14:54:15;10.70;;;3.50;;
53875;SDS011;39789;53.216;5.624;2022-10-12T14:56:41;10.10;;;3.50;;
53875;SDS011;39789;53.216;5.624;2022-10-12T14:59:06;10.00;;;3.20;;
53875;SDS011;39789;53.216;5.624;2022-10-12T15:01:32;10.20;;;4.20;;
53875;SDS011;39789;53.216;5.624;2022-10-12T15:03:57;12.90;;;3.95;;
53875;SDS011;39789;53.216;5.624;2022-10-12T15:06:24;8.02;;;3.80;;
53875;SDS011;39789;53.216;5.624;2022-10-12T15:12:31;11.68;;;4.30;;
53875;SDS011;39789;53.216;5.624;2022-10-12T15:15:00;12.27;;;3.75;;
53875;SDS011;39789;53.216;5.624;2022-10-12T15:17:36;10.63;;;3.58;;
53875;SDS011;39789;53.216;5.624;2022-10-12T15:20:02;11.07;;;4.40;;
53875;SDS011;39789;53.216;5.624;2022-10-12T15:22:28;12.68;;;4.20;;
53875;SDS011;39789;53.216;5.624;2022-10-12T15:24:54;13.05;;;4.78;;
53875;SDS011;39789;53.216;5.624;2022-10-12T15:27:20;8.90;;;3.85;;
53875;SDS011;39789;53.216;5.624;2022-10-12T15:29:46;14.52;;;4.75;;
53875;SDS011;39789;53.216;5.624;2022-10-12T15:32:13;12.35;;;4.18;;
53875;SDS011;39789;53.216;5.624;2022-10-12T15:34:40;12.02;;;4.10;;
53875;SDS011;39789;53.216;5.624;2022-10-12T15:37:05;15.50;;;4.35;;
53875;SDS011;39789;53.216;5.624;2022-10-12T15:39:31;9.05;;;4.25;;
53875;SDS011;39789;53.216;5.624;2022-10-12T15:41:57;9.93;;;3.92;;
53875;SDS011;39789;53.216;5.624;2022-10-12T15:44:22;13.40;;;4.43;;
53875;SDS011;39789;53.216;5.624;2022-10-12T15:46:50;11.02;;;4.40;;
53875;SDS011;39789;53.216;5.624;2022-10-12T15:49:16;11.45;;;3.83;;
53875;SDS011;39789;53.216;5.624;2022-10-12T15:51:45;10.40;;;4.00;;
53875;SDS011;39789;53.216;5.624;2022-10-12T15:54:12;9.75;;;4.28;;
53875;SDS011;39789;53.216;5.624;2022-10-12T15:56:38;10.70;;;3.90;;
53875;SDS011;39789;53.216;5.624;2022-10-12T15:59:04;9.38;;;3.92;;
53875;SDS011;39789;53.216;5.624;2022-10-12T16:01:30;12.23;;;4.55;;
53875;SDS011;39789;53.216;5.624;2022-10-12T16:03:56;11.65;;;4.88;;
53875;SDS011;39789;53.216;5.624;2022-10-12T16:06:22;12.80;;;4.15;;
53875;SDS011;39789;53.216;5.624;2022-10-12T16:08:47;13.70;;;4.82;;
53875;SDS011;39789;53.216;5.624;2022-10-12T16:11:14;7.65;;;3.65;;
53875;SDS011;39789;53.216;5.624;2022-10-12T16:13:41;7.85;;;3.67;;
53875;SDS011;39789;53.216;5.624;2022-10-12T16:16:09;11.02;;;4.30;;
53875;SDS011;39789;53.216;5.624;2022-10-12T16:18:34;12.13;;;4.90;;
53875;SDS011;39789;53.216;5.624;2022-10-12T16:21:00;12.88;;;3.90;;
53875;SDS011;39789;53.216;5.624;2022-10-12T16:23:26;14.15;;;4.55;;
53875;SDS011;39789;53.216;5.624;2022-10-12T16:25:54;11.85;;;4.47;;
53875;SDS011;39789;53.216;5.624;2022-10-12T16:28:20;13.10;;;4.32;;
53875;SDS011;39789;53.216;5.624;2022-10-12T16:30:47;13.02;;;5.13;;
53875;SDS011;39789;53.216;5.624;2022-10-12T16:33:14;10.68;;;4.40;;
53875;SDS011;39789;53.216;5.624;2022-10-12T16:35:40;9.75;;;4.10;;
53875;SDS011;39789;53.216;5.624;2022-10-12T16:38:05;14.98;;;4.63;;
53875;SDS011;39789;53.216;5.624;2022-10-12T16:40:33;11.25;;;4.53;;
53875;SDS011;39789;53.216;5.624;2022-10-12T16:42:59;11.45;;;3.88;;
53875;SDS011;39789;53.216;5.624;2022-10-12T16:45:25;12.98;;;5.43;;
53875;SDS011;39789;53.216;5.624;2022-10-12T16:47:50;12.93;;;5.03;;
53875;SDS011;39789;53.216;5.624;2022-10-12T16:50:18;9.75;;;4.05;;
53875;SDS011;39789;53.216;5.624;2022-10-12T16:56:26;16.08;;;4.35;;
53875;SDS011;39789;53.216;5.624;2022-10-12T16:58:52;9.90;;;4.45;;
53875;SDS011;39789;53.216;5.624;2022-10-12T17:01:17;11.60;;;4.60;;
53875;SDS011;39789;53.216;5.624;2022-10-12T17:03:43;7.75;;;5.05;;
53875;SDS011;39789;53.216;5.624;2022-10-12T17:06:09;12.52;;;4.72;;